Aviation Digital Data Service (ADDS)

Output produced by METARs form (1837 UTC 01 September 2014)
found at http://aviationweather.gov/adds/metars/
 
KBAF 011727Z 0118/0218 18008KT P6SM BKN050 
     FM020000 VRB03KT P6SM SCT250 
     FM020900 00000KT P6SM BKN025 
     FM021200 00000KT P6SM BKN003 
     FM021500 21005KT P6SM FEW250